Time;durP1;ratioP1;P1;durP2;ratioP2;P2;SDS_P1;SDS_P2;PMS_P1;PMS_P2;Temp;Humidity;BMP_temperature;BMP_pressure;BME280_temperature;BME280_humidity;BME280_pressure;Samples;Min_cycle;Max_cycle;Signal;HPM_P1;HPM_P2
2023/01/25 00:02:08;;;;;;;24.65;13.82;;;0.20;78.50;;;;;;4651340;30;115011;-79
2023/01/25 00:04:35;;;;;;;25.05;14.02;;;0.20;78.50;;;;;;4651333;30;115137;-79
2023/01/25 00:07:03;;;;;;;24.02;13.85;;;0.20;78.50;;;;;;4651702;30;114952;-79
2023/01/25 00:09:30;;;;;;;23.50;13.43;;;0.20;78.50;;;;;;4651901;30;114561;-79
2023/01/25 00:11:57;;;;;;;23.60;13.35;;;0.20;78.60;;;;;;4634870;30;117360;-80
2023/01/25 00:14:25;;;;;;;24.38;13.25;;;0.20;78.60;;;;;;4650804;30;114630;-79
2023/01/25 00:16:52;;;;;;;22.25;12.57;;;0.20;78.60;;;;;;4650254;30;114570;-79
2023/01/25 00:19:19;;;;;;;22.73;13.68;;;0.20;78.60;;;;;;4636028;30;114875;-79
2023/01/25 00:21:46;;;;;;;27.45;15.23;;;0.20;78.70;;;;;;4650824;30;115265;-78
2023/01/25 00:24:14;;;;;;;24.25;14.00;;;0.20;78.80;;;;;;4649394;30;114811;-78
2023/01/25 00:26:44;;;;;;;24.52;13.93;;;0.30;78.80;;;;;;4636339;30;114571;-81
2023/01/25 00:29:12;;;;;;;22.02;12.80;;;0.20;78.70;;;;;;4651183;30;114545;-78
2023/01/25 00:31:47;;;;;;;26.48;15.35;;;0.20;78.70;;;;;;4649393;30;116771;-79
2023/01/25 00:34:23;;;;;;;;;;;0.20;78.80;;;;;;4649735;30;114995;-78
2023/01/25 00:37:21;;;;;;;26.73;13.82;;;0.10;78.70;;;;;;4649396;30;114887;-81
2023/01/25 00:39:48;;;;;;;20.85;12.23;;;0.10;79.00;;;;;;4649822;30;114969;-79
2023/01/25 00:42:16;;;;;;;26.48;12.60;;;0.10;78.90;;;;;;4649357;30;119050;-80
2023/01/25 00:44:44;;;;;;;24.77;13.48;;;0.20;79.00;;;;;;4635081;30;114726;-80
2023/01/25 00:47:11;;;;;;;26.55;13.30;;;0.20;79.00;;;;;;4636264;30;114593;-79
2023/01/25 00:49:39;;;;;;;24.85;13.80;;;0.20;79.00;;;;;;4650535;30;114526;-80
2023/01/25 00:52:07;;;;;;;26.73;13.35;;;0.20;78.90;;;;;;4649271;30;117214;-80
2023/01/25 00:54:34;;;;;;;21.88;11.13;;;0.20;78.90;;;;;;4621261;30;115024;-79
2023/01/25 00:57:02;;;;;;;23.27;12.60;;;0.20;78.90;;;;;;4621575;30;114394;-79
2023/01/25 00:59:30;;;;;;;26.25;13.90;;;0.20;78.80;;;;;;4635840;30;114753;-80
2023/01/25 01:02:08;;;;;;;30.17;14.93;;;0.20;78.90;;;;;;4649004;30;115280;-80
2023/01/25 01:04:35;;;;;;;22.25;11.90;;;0.20;78.90;;;;;;4648927;30;118292;-80
2023/01/25 01:07:02;;;;;;;21.33;13.25;;;0.20;78.90;;;;;;4649965;30;114515;-79
2023/01/25 01:09:29;;;;;;;24.50;12.45;;;0.10;78.90;;;;;;4621185;30;114675;-80
2023/01/25 01:11:57;;;;;;;26.05;14.02;;;0.20;79.00;;;;;;4634872;30;115855;-79
2023/01/25 01:14:24;;;;;;;22.88;11.43;;;0.10;79.00;;;;;;4650456;30;115213;-79
2023/01/25 01:16:51;;;;;;;22.27;12.40;;;0.10;79.00;;;;;;4650490;30;114609;-80
2023/01/25 01:19:19;;;;;;;26.80;13.65;;;0.10;79.00;;;;;;4649675;30;114595;-79
2023/01/25 01:21:46;;;;;;;22.90;11.75;;;0.10;78.90;;;;;;4634735;30;115428;-79
2023/01/25 01:24:13;;;;;;;26.23;12.63;;;0.00;79.10;;;;;;4650622;30;114696;-78
2023/01/25 01:26:41;;;;;;;25.92;11.95;;;0.10;79.20;;;;;;4650470;30;114600;-78
2023/01/25 01:29:08;;;;;;;23.80;12.40;;;0.10;79.10;;;;;;4621228;30;114651;-80
2023/01/25 01:31:35;;;;;;;28.23;13.05;;;0.00;79.20;;;;;;4649878;30;115356;-79
2023/01/25 01:34:13;;;;;;;26.73;13.57;;;0.10;79.30;;;;;;4633759;30;115368;-80
2023/01/25 01:36:40;;;;;;;25.42;12.30;;;0.10;79.30;;;;;;4649694;30;118512;-80
2023/01/25 01:39:08;;;;;;;22.80;11.98;;;0.10;79.30;;;;;;4635005;30;114737;-79
2023/01/25 01:41:35;;;;;;;22.98;11.50;;;0.10;79.20;;;;;;4648492;30;119309;-79
2023/01/25 01:44:03;;;;;;;22.73;12.18;;;0.10;79.10;;;;;;4648080;30;115166;-79
2023/01/25 01:46:32;;;;;;;23.75;12.50;;;0.00;79.20;;;;;;4649020;30;114600;-79
2023/01/25 01:49:13;;;;;;;24.30;13.48;;;0.00;79.30;;;;;;4648680;30;116253;-79
2023/01/25 01:51:48;;;;;;;23.40;12.85;;;0.00;79.30;;;;;;4618658;30;118041;-79
2023/01/25 01:54:36;;;;;;;28.98;14.07;;;0.10;79.50;;;;;;4623033;30;114673;-79
2023/01/25 01:57:13;;;;;;;26.20;14.10;;;0.10;79.50;;;;;;4623317;30;114736;-79
2023/01/25 01:59:45;;;;;;;31.88;14.82;;;0.20;79.50;;;;;;4623408;30;114737;-79
2023/01/25 02:02:24;;;;;;;31.75;15.73;;;0.20;79.50;;;;;;4651306;30;115700;-79
2023/01/25 02:04:52;;;;;;;29.90;14.35;;;0.30;79.40;;;;;;4636848;30;114621;-79
2023/01/25 02:07:21;;;;;;;29.30;14.05;;;0.30;79.20;;;;;;4637532;30;114534;-79
2023/01/25 02:09:50;;;;;;;30.50;14.18;;;0.20;79.20;;;;;;4637669;30;114607;-80
2023/01/25 02:12:18;;;;;;;28.65;13.85;;;0.20;79.10;;;;;;4636599;30;115285;-80
2023/01/25 02:14:51;;;;;;;29.85;15.07;;;0.20;79.20;;;;;;4635971;30;114633;-80
2023/01/25 02:17:35;;;;;;;24.90;12.07;;;0.20;79.30;;;;;;4637264;30;114758;-80
2023/01/25 02:20:21;;;;;;;27.75;13.48;;;0.20;79.30;;;;;;4637000;30;114717;-79
2023/01/25 02:23:18;;;;;;;29.27;14.40;;;0.20;79.30;;;;;;4650386;30;115136;-79
2023/01/25 02:25:46;;;;;;;28.38;13.98;;;0.20;79.20;;;;;;4651722;30;114714;-80
2023/01/25 02:28:24;;;;;;;25.70;12.77;;;0.20;79.20;;;;;;4637258;30;116942;-80
2023/01/25 02:30:51;;;;;;;21.63;12.02;;;0.20;79.40;;;;;;4637172;30;117722;-80
2023/01/25 02:33:22;;;;;;;26.00;12.65;;;0.20;79.30;;;;;;4651375;30;115716;-79
2023/01/25 02:35:58;;;;;;;26.73;13.25;;;0.30;79.20;;;;;;4636269;30;114968;-80
2023/01/25 02:38:25;;;;;;;30.33;13.65;;;0.30;79.10;;;;;;4636830;30;114542;-79
2023/01/25 02:41:01;;;;;;;28.00;14.55;;;0.20;79.10;;;;;;4636559;30;114491;-78
2023/01/25 02:43:31;;;;;;;31.05;14.73;;;0.30;79.20;;;;;;4649486;30;115201;-79
2023/01/25 02:46:13;;;;;;;28.20;13.88;;;0.20;79.10;;;;;;4621831;30;115801;-80
2023/01/25 02:48:47;;;;;;;30.42;13.25;;;0.30;79.20;;;;;;4637105;30;114796;-80
2023/01/25 02:51:14;;;;;;;24.17;12.68;;;0.40;79.30;;;;;;4652255;30;114981;-79
2023/01/25 02:53:41;;;;;;;25.73;12.65;;;0.40;79.20;;;;;;4650316;30;115635;-78
2023/01/25 02:56:08;;;;;;;27.13;13.05;;;0.40;79.10;;;;;;4650289;30;115401;-80
2023/01/25 02:58:36;;;;;;;31.65;14.63;;;0.50;79.10;;;;;;4622636;30;114726;-80
2023/01/25 03:01:03;;;;;;;25.70;12.75;;;0.40;79.00;;;;;;4651154;30;114512;-80
2023/01/25 03:03:30;;;;;;;22.90;12.98;;;0.50;79.00;;;;;;4635851;30;115326;-79
2023/01/25 03:05:58;;;;;;;25.67;13.02;;;0.50;79.00;;;;;;4635858;30;115386;-79
2023/01/25 03:08:25;;;;;;;21.90;11.60;;;0.50;79.00;;;;;;4650176;30;118046;-79
2023/01/25 03:10:57;;;;;;;24.05;12.52;;;0.60;79.00;;;;;;4636219;30;115260;-79
2023/01/25 03:13:25;;;;;;;22.85;11.93;;;0.60;78.90;;;;;;4621784;30;115605;-79
2023/01/25 03:16:06;;;;;;;29.58;13.25;;;0.60;78.70;;;;;;4650220;30;114749;-79
2023/01/25 03:18:34;;;;;;;30.67;13.85;;;0.60;78.70;;;;;;4636629;30;114568;-79
2023/01/25 03:21:08;;;;;;;33.50;14.07;;;0.60;78.70;;;;;;4636754;30;114508;-79
2023/01/25 03:23:38;;;;;;;35.47;16.20;;;0.60;78.50;;;;;;4649631;30;115221;-79
2023/01/25 03:26:15;;;;;;;33.70;14.85;;;0.50;78.40;;;;;;4636049;30;114713;-80
2023/01/25 03:29:07;;;;;;;29.27;13.55;;;0.50;78.50;;;;;;4636037;30;115357;-79
2023/01/25 03:31:37;;;;;;;29.50;15.05;;;0.40;78.50;;;;;;4637932;30;114577;-79
2023/01/25 03:34:05;;;;;;;26.00;12.82;;;0.30;78.60;;;;;;4649926;30;119017;-79
2023/01/25 03:36:37;;;;;;;28.15;14.77;;;0.30;78.50;;;;;;4637039;30;114993;-79
2023/01/25 03:39:04;;;;;;;27.23;14.68;;;0.30;78.50;;;;;;4623507;30;114760;-79
2023/01/25 03:41:37;;;;;;;22.58;12.55;;;0.30;78.70;;;;;;4637407;30;114726;-78
2023/01/25 03:44:10;;;;;;;28.00;13.15;;;0.30;78.90;;;;;;4651084;30;115227;-79
2023/01/25 03:46:39;;;;;;;28.42;13.15;;;0.40;78.70;;;;;;4650847;30;114953;-79
2023/01/25 03:49:06;;;;;;;31.08;15.35;;;0.40;78.80;;;;;;4637416;30;114592;-79
2023/01/25 03:51:33;;;;;;;25.17;13.45;;;0.40;78.60;;;;;;4653277;30;114671;-79
2023/01/25 03:54:01;;;;;;;28.20;13.52;;;0.50;78.60;;;;;;4636886;30;115609;-79
2023/01/25 03:56:29;;;;;;;33.63;15.52;;;0.40;78.50;;;;;;4650580;30;115230;-78
2023/01/25 03:59:13;;;;;;;;;;;0.40;78.50;;;;;;4651378;30;114589;-79
2023/01/25 04:01:42;;;;;;;28.58;13.02;;;0.30;78.40;;;;;;4665457;30;114601;-81
2023/01/25 04:04:09;;;;;;;26.17;13.52;;;0.30;78.50;;;;;;4636304;30;115400;-78
2023/01/25 04:06:39;;;;;;;25.52;11.95;;;0.20;78.50;;;;;;4636612;30;115166;-79
2023/01/25 04:09:06;;;;;;;25.95;12.18;;;0.20;78.60;;;;;;4622647;30;114751;-79
2023/01/25 04:11:39;;;;;;;21.92;11.30;;;0.20;78.70;;;;;;4651441;30;114607;-78
2023/01/25 04:14:06;;;;;;;26.63;14.57;;;0.20;78.60;;;;;;4636076;30;115181;-80
2023/01/25 04:16:42;;;;;;;23.98;12.43;;;0.10;78.70;;;;;;4650227;30;114731;-79
2023/01/25 04:19:30;;;;;;;26.10;12.23;;;0.10;78.70;;;;;;4651784;30;114589;-79
2023/01/25 04:21:59;;;;;;;24.42;12.50;;;0.10;78.70;;;;;;4651166;30;114656;-79
2023/01/25 04:24:32;;;;;;;28.38;13.05;;;0.10;78.70;;;;;;4649846;30;115925;-80
2023/01/25 04:26:59;;;;;;;25.35;13.50;;;0.10;78.80;;;;;;4649755;30;114896;-80
2023/01/25 04:29:29;;;;;;;21.63;10.73;;;0.10;78.90;;;;;;4636626;30;114470;-79
2023/01/25 04:32:08;;;;;;;23.25;12.18;;;0.10;78.90;;;;;;4651336;30;114666;-79
2023/01/25 04:34:36;;;;;;;26.10;12.52;;;0.10;78.90;;;;;;4651214;30;115356;-80
2023/01/25 04:37:04;;;;;;;26.98;12.15;;;0.10;79.00;;;;;;4635417;30;114852;-80
2023/01/25 04:39:38;;;;;;;24.75;12.10;;;0.10;79.00;;;;;;4650568;30;114414;-80
2023/01/25 04:42:06;;;;;;;25.45;12.27;;;0.10;78.90;;;;;;4651365;30;114808;-80
2023/01/25 04:44:34;;;;;;;30.15;13.63;;;0.10;78.90;;;;;;4638151;30;116069;-80
2023/01/25 04:47:02;;;;;;;27.27;12.65;;;0.10;78.90;;;;;;4640440;30;114710;-81
2023/01/25 04:49:29;;;;;;;24.08;12.07;;;0.10;78.80;;;;;;4652233;30;114446;-80
2023/01/25 04:51:57;;;;;;;25.00;12.30;;;0.10;78.80;;;;;;4635910;30;114846;-80
2023/01/25 04:54:24;;;;;;;24.45;12.32;;;0.10;78.90;;;;;;4649204;30;116728;-80
2023/01/25 04:56:52;;;;;;;21.90;11.75;;;0.20;78.80;;;;;;4634875;30;115535;-81
2023/01/25 04:59:19;;;;;;;17.88;8.85;;;0.10;78.70;;;;;;4621860;30;114554;-80
2023/01/25 05:01:47;;;;;;;19.10;10.07;;;0.10;78.60;;;;;;4651970;30;114698;-80
2023/01/25 05:04:14;;;;;;;16.33;8.32;;;0.10;78.60;;;;;;4648933;30;115240;-80
2023/01/25 05:06:44;;;;;;;16.95;10.13;;;0.10;78.70;;;;;;4634919;30;114973;-79
2023/01/25 05:09:12;;;;;;;16.35;8.02;;;0.10;78.70;;;;;;4650084;30;114410;-80
2023/01/25 05:11:39;;;;;;;20.50;10.63;;;0.20;78.70;;;;;;4635371;30;114593;-80
2023/01/25 05:14:10;;;;;;;20.35;9.68;;;0.20;78.60;;;;;;4649350;30;115608;-81
2023/01/25 05:16:39;;;;;;;20.42;9.88;;;0.30;78.60;;;;;;4650116;30;114680;-80
2023/01/25 05:19:08;;;;;;;19.58;9.82;;;0.30;78.50;;;;;;4649862;30;114767;-80
2023/01/25 05:21:58;;;;;;;19.50;10.73;;;0.30;78.50;;;;;;4650508;30;114506;-79
2023/01/25 05:24:40;;;;;;;19.63;10.40;;;0.30;78.60;;;;;;4648896;30;115409;-79
2023/01/25 05:27:12;;;;;;;21.92;10.63;;;0.50;78.40;;;;;;4651423;30;115186;-80
2023/01/25 05:29:55;;;;;;;19.35;10.73;;;0.40;78.30;;;;;;4649211;30;116767;-79
2023/01/25 05:32:31;;;;;;;17.45;9.02;;;0.40;78.40;;;;;;4631558;30;114749;-80
2023/01/25 05:34:58;;;;;;;19.48;9.80;;;0.40;78.20;;;;;;4663016;30;116441;-79
2023/01/25 05:37:27;;;;;;;17.48;8.65;;;0.40;78.00;;;;;;4660472;30;115390;-79
2023/01/25 05:40:00;;;;;;;18.02;9.88;;;0.40;78.00;;;;;;4659892;30;114821;-80
2023/01/25 05:42:29;;;;;;;17.40;9.85;;;0.40;78.00;;;;;;4660216;30;114590;-79
2023/01/25 05:44:56;;;;;;;16.38;9.40;;;0.40;78.00;;;;;;4643071;30;118568;-79
2023/01/25 05:47:24;;;;;;;17.83;9.80;;;0.40;78.10;;;;;;4658958;30;115130;-80
2023/01/25 05:49:53;;;;;;;12.88;8.20;;;0.40;78.00;;;;;;4658950;30;114544;-80
2023/01/25 05:52:30;;;;;;;16.45;9.10;;;0.40;77.90;;;;;;4661393;30;114912;-79
2023/01/25 05:54:59;;;;;;;16.85;10.18;;;0.40;77.80;;;;;;4656712;30;115260;-79
2023/01/25 05:57:27;;;;;;;17.48;9.27;;;0.50;77.80;;;;;;4660713;30;114797;-80
2023/01/25 05:59:55;;;;;;;13.15;7.82;;;0.50;77.50;;;;;;4656816;30;114632;-80
2023/01/25 06:02:22;;;;;;;14.40;8.65;;;0.50;77.30;;;;;;4647239;30;115398;-80
2023/01/25 06:04:50;;;;;;;16.73;8.02;;;0.50;77.30;;;;;;4656557;30;115206;-80
2023/01/25 06:07:17;;;;;;;15.05;9.13;;;0.40;77.10;;;;;;4645678;30;115366;-80
2023/01/25 06:09:45;;;;;;;16.80;8.95;;;0.40;77.40;;;;;;4657256;30;114860;-80
2023/01/25 06:12:12;;;;;;;12.82;6.88;;;0.50;77.40;;;;;;4659687;30;114524;-80
2023/01/25 06:14:39;;;;;;;13.20;7.28;;;0.60;77.20;;;;;;4662457;30;115171;-80
2023/01/25 06:17:07;;;;;;;11.20;7.68;;;0.60;77.00;;;;;;4660053;30;117935;-80
2023/01/25 06:19:58;;;;;;;12.35;7.43;;;0.60;76.70;;;;;;4649170;30;114675;-80
2023/01/25 06:22:34;;;;;;;14.23;8.00;;;0.50;76.60;;;;;;4648729;30;114543;-79
2023/01/25 06:25:02;;;;;;;10.85;6.18;;;0.50;76.50;;;;;;4661536;30;115188;-81
2023/01/25 06:27:29;;;;;;;12.02;7.10;;;0.40;76.30;;;;;;4631168;30;114736;-80
2023/01/25 06:29:56;;;;;;;11.80;6.75;;;0.40;76.30;;;;;;4663682;30;114415;-80
2023/01/25 06:32:24;;;;;;;12.55;7.70;;;0.30;76.30;;;;;;4663023;30;114830;-80
2023/01/25 06:34:52;;;;;;;15.73;9.07;;;0.30;76.40;;;;;;4664169;30;115178;-80
2023/01/25 06:37:35;;;;;;;15.50;9.40;;;0.30;76.30;;;;;;4662370;30;115560;-81
2023/01/25 06:40:05;;;;;;;14.82;9.20;;;0.20;76.50;;;;;;4636104;30;114497;-80
2023/01/25 06:42:32;;;;;;;19.90;10.57;;;0.20;76.50;;;;;;4653481;30;114542;-80
2023/01/25 06:44:59;;;;;;;17.98;9.98;;;0.20;76.50;;;;;;4652223;30;115264;-79
2023/01/25 06:47:27;;;;;;;18.50;10.25;;;0.20;76.70;;;;;;4636026;30;115381;-80
2023/01/25 06:49:54;;;;;;;15.45;9.38;;;0.30;76.80;;;;;;4653379;30;114619;-80
2023/01/25 06:52:21;;;;;;;17.02;10.60;;;0.20;76.80;;;;;;4653371;30;114312;-79
2023/01/25 06:54:49;;;;;;;20.27;10.73;;;0.30;76.90;;;;;;4651386;30;115125;-80
2023/01/25 06:57:16;;;;;;;17.52;10.10;;;0.30;77.00;;;;;;4652040;30;114957;-80
2023/01/25 06:59:43;;;;;;;17.17;10.35;;;0.40;77.00;;;;;;4649494;30;114730;-80
2023/01/25 07:02:14;;;;;;;17.63;9.40;;;0.40;76.90;;;;;;4652660;30;116518;-79
2023/01/25 07:04:41;;;;;;;17.27;10.85;;;0.50;76.90;;;;;;4652113;30;115292;-81
2023/01/25 07:07:09;;;;;;;22.33;13.63;;;0.50;76.90;;;;;;4652110;30;114733;-80
2023/01/25 07:09:36;;;;;;;23.98;13.25;;;0.60;77.00;;;;;;4653109;30;114763;-82
2023/01/25 07:12:04;;;;;;;21.00;12.93;;;0.60;76.30;;;;;;4652033;30;114573;-80
2023/01/25 07:14:31;;;;;;;23.05;13.75;;;0.60;76.30;;;;;;4650497;30;115245;-79
2023/01/25 07:16:59;;;;;;;18.17;10.98;;;0.60;76.40;;;;;;4651880;30;114600;-78
2023/01/25 07:19:29;;;;;;;16.65;10.75;;;0.60;76.20;;;;;;4636940;30;114751;-80
2023/01/25 07:21:56;;;;;;;15.73;9.25;;;0.50;76.20;;;;;;4651640;30;114543;-80
2023/01/25 07:24:25;;;;;;;18.85;9.90;;;0.50;76.30;;;;;;4651858;30;115143;-80
2023/01/25 07:26:53;;;;;;;15.15;9.43;;;0.40;76.40;;;;;;4650039;30;115859;-79
2023/01/25 07:29:21;;;;;;;18.25;10.73;;;0.50;76.50;;;;;;4651496;30;114474;-80
2023/01/25 07:31:48;;;;;;;16.30;10.27;;;0.50;76.20;;;;;;4636998;30;114741;-80
2023/01/25 07:34:15;;;;;;;15.05;8.98;;;0.50;76.20;;;;;;4650061;30;115132;-79
2023/01/25 07:36:43;;;;;;;17.77;11.38;;;0.40;76.20;;;;;;4650667;30;114685;-80
2023/01/25 07:39:10;;;;;;;18.65;10.55;;;0.50;76.10;;;;;;4652190;30;114425;-80
2023/01/25 07:41:38;;;;;;;16.05;9.70;;;0.40;76.10;;;;;;4651100;30;114555;-80
2023/01/25 07:44:10;;;;;;;17.40;9.90;;;0.40;76.00;;;;;;4649633;30;115185;-79
2023/01/25 07:46:43;;;;;;;16.40;9.73;;;0.40;76.10;;;;;;4636000;30;114763;-80
2023/01/25 07:49:10;;;;;;;17.52;10.00;;;0.40;76.20;;;;;;4651871;30;114399;-80
2023/01/25 07:51:37;;;;;;;15.93;9.43;;;0.40;76.10;;;;;;4650496;30;114768;-80
2023/01/25 07:54:04;;;;;;;15.77;9.43;;;0.40;75.80;;;;;;4649951;30;115085;-79
2023/01/25 07:56:34;;;;;;;17.08;8.88;;;0.40;75.70;;;;;;4650696;30;114635;-78
2023/01/25 07:59:01;;;;;;;15.02;8.95;;;0.40;75.70;;;;;;4636963;30;114611;-79
2023/01/25 08:01:32;;;;;;;13.52;8.57;;;0.40;75.70;;;;;;4636765;30;114675;-80
2023/01/25 08:04:00;;;;;;;15.90;8.93;;;0.40;75.60;;;;;;4650282;30;115264;-79
2023/01/25 08:06:34;;;;;;;17.52;10.20;;;0.40;75.80;;;;;;4651303;30;114712;-80
2023/01/25 08:09:09;;;;;;;17.35;10.30;;;0.50;76.00;;;;;;4650565;30;114789;-79
2023/01/25 08:11:37;;;;;;;14.88;8.25;;;0.60;75.90;;;;;;4636463;30;116711;-80
2023/01/25 08:14:04;;;;;;;18.25;11.07;;;0.60;75.70;;;;;;4635651;30;116962;-79
2023/01/25 08:16:34;;;;;;;15.57;10.32;;;0.60;75.50;;;;;;4635538;30;116987;-80
2023/01/25 08:19:02;;;;;;;17.92;10.75;;;0.60;75.60;;;;;;4651869;30;114636;-79
2023/01/25 08:21:32;;;;;;;16.27;9.57;;;0.60;75.40;;;;;;4636840;30;114478;-80
2023/01/25 08:24:02;;;;;;;21.30;12.18;;;0.50;75.30;;;;;;4635891;30;115129;-79
2023/01/25 08:26:29;;;;;;;18.33;11.10;;;0.30;75.40;;;;;;4651594;30;117082;-79
2023/01/25 08:28:57;;;;;;;20.20;11.60;;;0.20;75.80;;;;;;4650829;30;114700;-80
2023/01/25 08:31:27;;;;;;;21.27;12.18;;;0.20;76.10;;;;;;4651880;30;114435;-80
2023/01/25 08:33:54;;;;;;;19.33;11.43;;;0.40;76.30;;;;;;4634857;30;115469;-79
2023/01/25 08:36:26;;;;;;;18.20;9.98;;;0.50;76.30;;;;;;4635436;30;118049;-80
2023/01/25 08:38:56;;;;;;;17.70;10.55;;;0.40;75.90;;;;;;4651929;30;114384;-80
2023/01/25 08:41:23;;;;;;;19.73;11.73;;;0.40;75.90;;;;;;4651887;30;114452;-79
2023/01/25 08:43:52;;;;;;;18.65;11.43;;;0.40;76.10;;;;;;4649618;30;115173;-81
2023/01/25 08:46:20;;;;;;;21.45;13.07;;;0.50;76.30;;;;;;4635557;30;114952;-80
2023/01/25 08:48:47;;;;;;;19.83;12.98;;;0.50;76.50;;;;;;4636114;30;114606;-79
2023/01/25 08:51:15;;;;;;;17.27;11.13;;;0.60;76.30;;;;;;4636034;30;114634;-80
2023/01/25 08:53:43;;;;;;;18.52;11.75;;;0.60;76.00;;;;;;4634837;30;117947;-80
2023/01/25 08:56:12;;;;;;;27.77;15.02;;;0.70;75.90;;;;;;4650592;30;115478;-80
2023/01/25 08:58:45;;;;;;;23.98;14.48;;;0.60;75.80;;;;;;4635737;30;114556;-80
2023/01/25 09:01:15;;;;;;;20.52;12.65;;;0.60;75.80;;;;;;4638082;30;114341;-79
2023/01/25 09:03:44;;;;;;;21.90;12.15;;;0.60;75.70;;;;;;4640738;30;115155;-80
2023/01/25 09:06:11;;;;;;;20.33;12.82;;;0.60;75.70;;;;;;4640578;30;116273;-81
2023/01/25 09:08:39;;;;;;;18.10;10.70;;;0.60;75.70;;;;;;4656439;30;114681;-81
2023/01/25 09:11:08;;;;;;;15.75;9.80;;;0.70;75.40;;;;;;4641657;30;114777;-80
2023/01/25 09:13:36;;;;;;;18.55;10.25;;;0.60;75.30;;;;;;4640807;30;115249;-80
2023/01/25 09:16:06;;;;;;;21.13;11.65;;;0.50;75.40;;;;;;4640250;30;115966;-80
2023/01/25 09:18:34;;;;;;;19.52;11.35;;;0.60;75.50;;;;;;4627333;30;114501;-80
2023/01/25 09:21:09;;;;;;;15.70;8.60;;;0.60;75.40;;;;;;4665642;30;114607;-79
2023/01/25 09:23:37;;;;;;;18.85;10.35;;;0.60;75.20;;;;;;4654416;30;115540;-80
2023/01/25 09:26:18;;;;;;;18.45;11.10;;;0.40;75.20;;;;;;4654970;30;115187;-79
2023/01/25 09:28:48;;;;;;;17.90;10.40;;;0.40;75.60;;;;;;4654173;30;114487;-80
2023/01/25 09:31:16;;;;;;;18.90;11.68;;;0.50;75.80;;;;;;4654878;30;115181;-80
2023/01/25 09:34:10;;;;;;;19.97;12.53;;;0.60;75.80;;;;;;4652696;30;115580;-80
2023/01/25 09:36:50;;;;;;;23.58;13.65;;;0.60;75.50;;;;;;4655107;30;114724;-81
2023/01/25 09:39:19;;;;;;;18.13;11.00;;;0.60;75.50;;;;;;4656669;30;114511;-79
2023/01/25 09:42:26;;;;;;;19.13;11.13;;;0.60;75.30;;;;;;4656940;30;115986;-79
2023/01/25 09:45:11;;;;;;;18.15;10.48;;;0.60;75.30;;;;;;4642008;30;120227;-80
2023/01/25 09:48:04;;;;;;;19.35;11.98;;;0.50;75.30;;;;;;4654116;30;114854;-80
2023/01/25 09:51:13;;;;;;;20.88;12.50;;;0.50;75.40;;;;;;4653224;30;114557;-80
2023/01/25 09:53:49;;;;;;;18.35;11.27;;;0.50;75.80;;;;;;4640909;30;114531;-80
2023/01/25 09:56:22;;;;;;;19.55;11.32;;;0.60;75.90;;;;;;4642973;30;115217;-80
2023/01/25 09:58:52;;;;;;;19.95;12.77;;;0.70;75.70;;;;;;4641879;30;114787;-80
2023/01/25 10:02:29;;;;;;;20.02;11.60;;;0.70;75.60;;;;;;4641169;30;114615;-80
2023/01/25 10:05:01;;;;;;;20.25;12.10;;;0.80;75.40;;;;;;4619776;30;115005;-80
2023/01/25 10:07:39;;;;;;;19.95;9.95;;;0.70;75.30;;;;;;4652941;30;115743;-81
2023/01/25 10:10:15;;;;;;;22.08;12.93;;;0.70;75.00;;;;;;4626693;30;115771;-79
2023/01/25 10:12:42;;;;;;;22.02;11.90;;;0.60;75.00;;;;;;4621332;30;114698;-81
2023/01/25 10:15:20;;;;;;;18.13;10.32;;;0.60;75.00;;;;;;4651105;30;115276;-81
2023/01/25 10:18:19;;;;;;;22.10;12.35;;;0.60;75.00;;;;;;4648675;30;115251;-81
2023/01/25 10:21:33;;;;;;;19.65;10.13;;;0.50;75.00;;;;;;4647699;30;115316;-81
2023/01/25 10:24:23;;;;;;;17.80;9.73;;;0.50;75.00;;;;;;4641921;30;114574;-80
2023/01/25 10:27:01;;;;;;;17.92;9.88;;;0.50;75.00;;;;;;4652742;30;114582;-79
2023/01/25 10:29:32;;;;;;;17.90;10.57;;;0.50;75.20;;;;;;4623206;30;115320;-79
2023/01/25 10:32:31;;;;;;;18.55;10.52;;;0.60;75.00;;;;;;4621287;30;114741;-79
2023/01/25 10:35:20;;;;;;;18.30;9.85;;;0.50;74.70;;;;;;4651031;30;114922;-79
2023/01/25 10:38:24;;;;;;;14.82;9.20;;;0.40;74.90;;;;;;4633435;30;114984;-80
2023/01/25 10:41:10;;;;;;;15.07;9.30;;;0.40;75.10;;;;;;4648251;30;115657;-78
2023/01/25 10:43:37;;;;;;;16.27;9.73;;;0.40;75.10;;;;;;4661751;30;115085;-79
2023/01/25 10:46:21;;;;;;;20.23;13.05;;;0.40;75.10;;;;;;4636598;30;114884;-80
2023/01/25 10:48:48;;;;;;;17.87;11.30;;;0.50;74.80;;;;;;4649554;30;114524;-79
2023/01/25 10:51:34;;;;;;;16.58;9.77;;;0.60;75.10;;;;;;4636354;30;114859;-80
2023/01/25 10:54:13;;;;;;;17.63;10.45;;;0.60;74.80;;;;;;4636183;30;115363;-78
2023/01/25 10:56:42;;;;;;;16.13;9.98;;;0.60;74.70;;;;;;4635858;30;114685;-80
2023/01/25 10:59:24;;;;;;;15.70;10.00;;;0.60;74.60;;;;;;4652589;30;116805;-79
2023/01/25 11:01:54;;;;;;;14.60;9.02;;;0.70;74.20;;;;;;4634819;30;115385;-79
2023/01/25 11:04:35;;;;;;;16.27;9.27;;;0.60;74.20;;;;;;4624347;30;115975;-79
2023/01/25 11:07:10;;;;;;;17.88;9.07;;;0.70;74.10;;;;;;4650905;30;114601;-80
2023/01/25 11:09:38;;;;;;;16.02;10.82;;;0.80;74.40;;;;;;4635703;30;117214;-79
2023/01/25 11:12:27;;;;;;;12.57;8.32;;;0.80;74.30;;;;;;4649279;30;117213;-81
2023/01/25 11:14:54;;;;;;;15.52;8.85;;;0.90;73.60;;;;;;4635101;30;116831;-78
2023/01/25 11:17:30;;;;;;;18.70;11.18;;;0.80;73.60;;;;;;4648773;30;114656;-79
2023/01/25 11:20:17;;;;;;;17.98;9.52;;;0.90;73.60;;;;;;4636153;30;114548;-79
2023/01/25 11:22:55;;;;;;;16.20;8.82;;;0.90;73.30;;;;;;4650954;30;115112;-81
2023/01/25 11:25:33;;;;;;;15.75;9.25;;;0.90;73.50;;;;;;4650303;30;114893;-79
2023/01/25 11:28:24;;;;;;;15.35;9.60;;;0.90;73.40;;;;;;4649593;30;115910;-79
2023/01/25 11:30:51;;;;;;;16.83;9.38;;;1.00;73.30;;;;;;4651092;30;114766;-79
2023/01/25 11:33:20;;;;;;;12.65;8.82;;;0.90;73.20;;;;;;4649757;30;115102;-79
2023/01/25 11:36:32;;;;;;;14.45;9.80;;;0.90;72.90;;;;;;4649001;30;114940;-80
2023/01/25 11:39:17;;;;;;;15.27;8.18;;;0.90;72.70;;;;;;4648040;30;114513;-79
2023/01/25 11:42:45;;;;;;;15.77;9.23;;;0.80;72.90;;;;;;4645732;30;114413;-78
2023/01/25 11:46:06;;;;;;;15.60;8.57;;;0.80;72.90;;;;;;4601799;30;115392;-79
2023/01/25 11:49:13;;;;;;;11.38;7.93;;;0.80;73.00;;;;;;4613607;30;114980;-79
2023/01/25 11:52:02;;;;;;;14.80;8.25;;;0.80;73.00;;;;;;4637398;30;114658;-77
2023/01/25 11:54:40;;;;;;;14.98;9.32;;;0.80;72.80;;;;;;4652044;30;114676;-81
2023/01/25 11:57:53;;;;;;;15.90;9.90;;;0.70;72.90;;;;;;4634877;30;115175;-79
2023/01/25 12:00:38;;;;;;;16.63;9.27;;;0.80;73.10;;;;;;4631487;30;114913;-80
2023/01/25 12:03:39;;;;;;;14.90;9.10;;;0.80;73.30;;;;;;4635308;30;114876;-79
2023/01/25 12:06:22;;;;;;;13.98;8.90;;;0.90;72.80;;;;;;4649627;30;114585;-80
2023/01/25 12:09:25;;;;;;;14.75;9.68;;;0.90;72.90;;;;;;4635222;30;115217;-79
2023/01/25 12:12:02;;;;;;;14.60;8.15;;;1.00;72.90;;;;;;4649000;30;114876;-81
2023/01/25 12:15:03;;;;;;;13.85;8.13;;;1.00;72.60;;;;;;4620709;30;115229;-80
2023/01/25 12:18:07;;;;;;;14.40;8.45;;;1.00;72.40;;;;;;4625570;30;114844;-80
2023/01/25 12:21:22;;;;;;;17.00;9.60;;;0.90;72.30;;;;;;4639304;30;115255;-79
2023/01/25 12:24:25;;;;;;;16.05;9.68;;;0.90;72.30;;;;;;4634741;30;115082;-80
2023/01/25 12:27:34;;;;;;;13.82;9.15;;;1.00;72.40;;;;;;4649702;30;114632;-81
2023/01/25 12:30:10;;;;;;;16.73;9.73;;;0.90;72.30;;;;;;4635771;30;115803;-79
2023/01/25 12:32:46;;;;;;;18.63;9.63;;;0.90;72.60;;;;;;4634682;30;115025;-79
2023/01/25 12:35:29;;;;;;;16.92;10.07;;;0.90;72.40;;;;;;4625546;30;114992;-79
2023/01/25 12:38:06;;;;;;;18.25;11.25;;;0.90;72.40;;;;;;4645117;30;114546;-79
2023/01/25 12:40:50;;;;;;;19.13;11.88;;;0.90;72.40;;;;;;4636485;30;114645;-79
2023/01/25 12:43:32;;;;;;;20.67;12.20;;;1.00;72.70;;;;;;4620166;30;115213;-78
2023/01/25 12:46:03;;;;;;;21.73;13.23;;;1.00;72.60;;;;;;4634450;30;114802;-78
2023/01/25 12:48:36;;;;;;;18.05;10.70;;;0.90;72.40;;;;;;4620824;30;114932;-79
2023/01/25 12:51:04;;;;;;;18.13;10.50;;;1.00;72.40;;;;;;4648184;30;115867;-80
2023/01/25 12:53:43;;;;;;;18.92;10.30;;;1.00;72.10;;;;;;4650034;30;115192;-79
2023/01/25 12:56:33;;;;;;;19.05;11.10;;;0.90;72.10;;;;;;4633844;30;115945;-80
2023/01/25 12:59:26;;;;;;;17.95;9.70;;;0.90;72.30;;;;;;4620931;30;114806;-80
2023/01/25 13:02:14;;;;;;;18.75;9.90;;;0.90;72.30;;;;;;4626519;30;114552;-79
2023/01/25 13:05:12;;;;;;;17.60;10.15;;;0.80;72.30;;;;;;4636609;30;116974;-79
2023/01/25 13:07:53;;;;;;;18.08;11.60;;;0.90;72.20;;;;;;4646442;30;115741;-80